createdAt,value
2019-04-30T00:00:38.554Z,9.21
2019-04-30T00:01:38.556Z,9.21
2019-04-30T00:02:40.065Z,9.32
2019-04-30T00:03:38.473Z,9.29
2019-04-30T00:04:47.070Z,9.37
2019-04-30T00:06:47.043Z,9.36
2019-04-30T00:07:39.802Z,9.32
2019-04-30T00:09:49.238Z,9.25
2019-04-30T00:10:41.514Z,9.32
2019-04-30T00:11:41.117Z,9.26
2019-04-30T00:12:41.090Z,9.25
2019-04-30T00:13:41.062Z,9.23
2019-04-30T00:14:41.369Z,9.23
2019-04-30T00:15:41.023Z,9.16
2019-04-30T00:16:40.993Z,9.23
2019-04-30T00:17:40.967Z,9.23
2019-04-30T00:18:55.164Z,9.16
2019-04-30T00:19:40.920Z,9.14
2019-04-30T00:20:40.899Z,9.22
2019-04-30T00:21:40.872Z,9.23
2019-04-30T00:22:47.149Z,9.22
2019-04-30T00:23:40.825Z,9.22
2019-04-30T00:24:46.815Z,9.23
2019-04-30T00:25:40.777Z,9.18
2019-04-30T00:26:46.749Z,9.26
2019-04-30T00:27:40.730Z,9.14
2019-04-30T00:28:44.374Z,9.14
2019-04-30T00:29:40.680Z,9.22
2019-04-30T00:30:43.877Z,9.22
2019-04-30T00:31:40.631Z,9.21
2019-04-30T00:32:43.826Z,9.25
2019-04-30T00:33:40.583Z,9.28
2019-04-30T00:34:40.574Z,9.25
2019-04-30T00:35:40.534Z,9.26
2019-04-30T00:36:40.511Z,9.19
2019-04-30T00:37:40.486Z,9.14
2019-04-30T00:38:40.464Z,9.04
2019-04-30T00:39:44.436Z,9.18
2019-04-30T00:40:40.414Z,9.18
2019-04-30T00:41:45.972Z,9.22
2019-04-30T00:42:40.370Z,9.25
2019-04-30T00:43:46.465Z,9.26
2019-04-30T00:44:40.317Z,9.18
2019-04-30T00:45:44.913Z,9.29
2019-04-30T00:46:40.288Z,9.25
2019-04-30T00:47:44.438Z,9.25
2019-04-30T00:48:40.223Z,9.25
2019-04-30T00:49:40.192Z,9.26
2019-04-30T00:50:40.173Z,9.28
2019-04-30T00:51:40.148Z,9.25
2019-04-30T00:52:40.126Z,9.31
2019-04-30T00:53:43.796Z,9.34
2019-04-30T00:54:40.078Z,9.23
2019-04-30T00:55:44.249Z,9.31
2019-04-30T00:56:40.034Z,9.26
2019-04-30T00:57:43.547Z,9.31
2019-04-30T00:58:39.981Z,9.28
2019-04-30T00:59:44.002Z,9.34
2019-04-30T01:00:39.937Z,9.34
2019-04-30T01:01:43.519Z,9.32
2019-04-30T01:02:39.884Z,9.32
2019-04-30T01:03:46.369Z,9.26
2019-04-30T01:04:39.843Z,9.32
2019-04-30T01:05:43.868Z,9.25
2019-04-30T01:06:39.790Z,9.32
2019-04-30T01:07:47.969Z,9.25
2019-04-30T01:08:39.749Z,9.22
2019-04-30T01:09:43.581Z,9.29
2019-04-30T01:10:39.697Z,9.34
2019-04-30T01:11:44.007Z,9.28
2019-04-30T01:12:44.922Z,9.34
2019-04-30T01:13:45.553Z,9.29
2019-04-30T01:14:39.594Z,9.26
2019-04-30T01:15:39.578Z,9.19
2019-04-30T01:16:39.544Z,9.28
2019-04-30T01:17:40.884Z,9.28
2019-04-30T01:18:39.505Z,9.25
2019-04-30T01:19:39.654Z,9.26
2019-04-30T01:20:40.719Z,9.23
2019-04-30T01:21:40.229Z,9.26
2019-04-30T01:22:39.409Z,9.23
2019-04-30T01:23:43.186Z,9.26
2019-04-30T01:24:39.363Z,9.22
2019-04-30T01:25:43.210Z,9.23
2019-04-30T01:26:39.401Z,9.25
2019-04-30T01:27:45.468Z,9.21
2019-04-30T01:28:39.271Z,9.19
2019-04-30T01:29:44.165Z,9.23
2019-04-30T01:30:39.439Z,9.25
2019-04-30T01:31:40.835Z,9.22
2019-04-30T01:32:39.505Z,9.28
2019-04-30T01:33:39.172Z,9.23
2019-04-30T01:34:39.556Z,9.29
2019-04-30T01:35:40.590Z,9.28
2019-04-30T01:36:39.320Z,9.21
2019-04-30T01:37:39.050Z,9.23
2019-04-30T01:38:40.360Z,9.18
2019-04-30T01:39:39.181Z,9.18
2019-04-30T01:40:42.802Z,9.28
2019-04-30T01:41:40.237Z,9.23
2019-04-30T01:42:41.122Z,9.14
2019-04-30T01:43:38.910Z,9.21
2019-04-30T01:44:39.232Z,9.16
2019-04-30T01:45:38.857Z,9.18
2019-04-30T01:46:39.118Z,9.13
2019-04-30T01:47:39.703Z,9.10
2019-04-30T01:48:39.323Z,9.06
2019-04-30T01:49:42.653Z,8.95
2019-04-30T01:50:42.058Z,8.94
2019-04-30T01:51:38.788Z,8.99
2019-04-30T01:52:38.835Z,8.87
2019-04-30T01:53:38.872Z,8.87
2019-04-30T01:54:39.150Z,8.81
2019-04-30T01:55:38.973Z,8.70
2019-04-30T01:56:38.996Z,8.67
2019-04-30T01:57:39.035Z,8.60
2019-04-30T01:58:39.358Z,8.63
2019-04-30T01:59:38.830Z,8.58
2019-04-30T02:00:39.153Z,8.58
2019-04-30T02:01:39.047Z,8.55
2019-04-30T02:02:39.431Z,8.52
2019-04-30T02:03:40.038Z,8.52
2019-04-30T02:04:39.327Z,8.45
2019-04-30T02:05:38.621Z,8.45
2019-04-30T02:06:39.156Z,8.48
2019-04-30T02:07:38.845Z,8.34
2019-04-30T02:08:39.312Z,8.30
2019-04-30T02:09:38.860Z,8.45
2019-04-30T02:10:38.262Z,8.26
2019-04-30T02:11:38.865Z,8.24
2019-04-30T02:12:39.277Z,8.26
2019-04-30T02:13:39.220Z,8.16
2019-04-30T02:14:39.484Z,8.23
2019-04-30T02:15:39.036Z,8.01
2019-04-30T02:16:39.585Z,8.05
2019-04-30T02:17:38.870Z,8.05
2019-04-30T02:18:39.411Z,8.09
2019-04-30T02:19:39.085Z,8.03
2019-04-30T02:20:38.451Z,8.00
2019-04-30T02:21:38.575Z,8.06
2019-04-30T02:22:38.959Z,8.01
2019-04-30T02:23:39.245Z,8.03
2019-04-30T02:24:38.674Z,8.08
2019-04-30T02:25:39.805Z,8.03
2019-04-30T02:26:38.477Z,8.03
2019-04-30T02:27:39.061Z,8.00
2019-04-30T02:28:39.372Z,8.03
2019-04-30T02:29:39.685Z,8.12
2019-04-30T02:30:40.326Z,8.05
2019-04-30T02:31:40.595Z,8.03
2019-04-30T02:32:39.496Z,8.08
2019-04-30T02:33:40.383Z,7.95
2019-04-30T02:34:41.133Z,7.93
2019-04-30T02:35:40.486Z,7.83
2019-04-30T02:36:40.368Z,7.76
2019-04-30T02:37:40.382Z,7.95
2019-04-30T02:38:39.643Z,7.94
2019-04-30T02:39:40.128Z,8.00
2019-04-30T02:40:39.329Z,8.12
2019-04-30T02:41:40.847Z,8.05
2019-04-30T02:42:39.746Z,8.08
2019-04-30T02:43:39.744Z,8.03
2019-04-30T02:44:37.421Z,8.05
2019-04-30T02:45:39.951Z,8.08
2019-04-30T02:46:40.196Z,7.95
2019-04-30T02:47:39.810Z,7.97
2019-04-30T02:48:39.724Z,7.90
2019-04-30T02:49:39.746Z,7.91
2019-04-30T02:50:39.312Z,7.75
2019-04-30T02:51:39.779Z,7.87
2019-04-30T02:52:37.226Z,7.79
2019-04-30T02:53:37.193Z,7.94
2019-04-30T02:54:39.463Z,7.97
2019-04-30T02:55:37.162Z,7.94
2019-04-30T02:56:39.808Z,8.00
2019-04-30T02:57:39.482Z,7.97
2019-04-30T02:58:37.082Z,7.91
2019-04-30T02:59:40.136Z,7.87
2019-04-30T03:00:39.347Z,7.82
2019-04-30T03:01:37.011Z,7.83
2019-04-30T03:02:39.175Z,7.77
2019-04-30T03:03:39.688Z,7.73
2019-04-30T03:04:39.388Z,7.69
2019-04-30T03:05:39.119Z,7.69
2019-04-30T03:06:36.882Z,7.66
2019-04-30T03:07:36.855Z,7.69
2019-04-30T03:08:36.827Z,7.63
2019-04-30T03:09:39.327Z,7.73
2019-04-30T03:10:36.775Z,7.73
2019-04-30T03:11:36.759Z,7.63
2019-04-30T03:12:36.728Z,7.70
2019-04-30T03:13:40.057Z,7.66
2019-04-30T03:14:36.679Z,7.61
2019-04-30T03:15:39.236Z,7.53
2019-04-30T03:16:36.620Z,7.58
2019-04-30T03:17:39.336Z,7.56
2019-04-30T03:18:36.576Z,7.54
2019-04-30T03:19:36.557Z,7.47
2019-04-30T03:20:36.847Z,7.47
2019-04-30T03:21:36.501Z,7.45
2019-04-30T03:22:36.475Z,7.39
2019-04-30T03:23:38.979Z,7.38
2019-04-30T03:24:36.420Z,7.36
2019-04-30T03:25:36.405Z,7.39
2019-04-30T03:26:36.376Z,7.35
2019-04-30T03:27:36.349Z,7.28
2019-04-30T03:28:36.325Z,7.21
2019-04-30T03:29:36.294Z,7.25
2019-04-30T03:30:36.324Z,7.21
2019-04-30T03:31:36.260Z,7.28
2019-04-30T03:32:36.773Z,7.31
2019-04-30T03:33:36.213Z,7.23
2019-04-30T03:34:36.186Z,7.23
2019-04-30T03:35:36.148Z,7.21
2019-04-30T03:36:36.118Z,7.13
2019-04-30T03:37:36.097Z,7.11
2019-04-30T03:38:36.076Z,7.15
2019-04-30T03:39:36.048Z,7.17
2019-04-30T03:40:36.020Z,7.24
2019-04-30T03:41:35.994Z,7.25
2019-04-30T03:42:35.964Z,7.10
2019-04-30T03:43:35.959Z,7.13
2019-04-30T03:44:35.918Z,7.02
2019-04-30T03:45:35.891Z,6.93
2019-04-30T03:46:35.879Z,6.99
2019-04-30T03:47:43.360Z,6.84
2019-04-30T03:49:30.966Z,7.00
2019-04-30T03:50:48.122Z,6.96
2019-04-30T03:52:24.766Z,7.07
2019-04-30T03:53:31.906Z,7.14
2019-04-30T03:55:25.128Z,7.10
2019-04-30T03:56:24.762Z,7.03
2019-04-30T03:58:21.187Z,6.95
2019-04-30T03:59:10.985Z,6.95
2019-04-30T04:01:03.320Z,6.95
2019-04-30T04:02:03.295Z,6.85
2019-04-30T04:03:56.179Z,6.67
2019-04-30T04:04:56.121Z,6.69
2019-04-30T04:06:50.031Z,6.74
2019-04-30T04:07:53.106Z,6.81
2019-04-30T04:09:51.573Z,6.81
2019-04-30T04:10:44.348Z,6.79
2019-04-30T04:12:39.384Z,6.67
2019-04-30T04:13:39.906Z,6.70
2019-04-30T04:15:30.074Z,6.77
2019-04-30T04:16:32.265Z,6.70
2019-04-30T04:18:25.450Z,6.66
2019-04-30T04:19:25.389Z,6.67
2019-04-30T04:20:25.377Z,6.54
2019-04-30T04:21:25.858Z,6.48
2019-04-30T04:22:25.335Z,6.46
2019-04-30T04:23:25.312Z,6.46
2019-04-30T04:24:25.290Z,6.45
2019-04-30T04:25:25.281Z,6.36
2019-04-30T04:26:25.230Z,6.36
2019-04-30T04:27:25.269Z,6.26
2019-04-30T04:28:25.205Z,6.26
2019-04-30T04:29:25.162Z,6.27
2019-04-30T04:30:25.140Z,6.14
2019-04-30T04:31:33.736Z,6.19
2019-04-30T04:33:19.942Z,6.05
2019-04-30T04:34:19.777Z,6.08
2019-04-30T04:36:10.818Z,6.11
2019-04-30T04:37:10.785Z,6.16
2019-04-30T04:39:03.683Z,6.14
2019-04-30T04:40:03.623Z,6.11
2019-04-30T04:42:00.044Z,6.27
2019-04-30T04:43:00.066Z,6.28
2019-04-30T04:44:51.441Z,6.48
2019-04-30T04:45:51.390Z,6.57
2019-04-30T04:47:44.304Z,6.59
2019-04-30T04:48:44.241Z,6.74
2019-04-30T04:50:39.798Z,6.89
2019-04-30T04:51:41.116Z,7.10
2019-04-30T04:53:33.000Z,7.13
2019-04-30T04:54:32.984Z,7.13
2019-04-30T04:55:32.944Z,7.28
2019-04-30T04:56:32.926Z,7.20
2019-04-30T04:57:32.897Z,7.23
2019-04-30T04:58:32.909Z,7.33
2019-04-30T04:59:32.833Z,7.29
2019-04-30T05:00:32.824Z,7.38
2019-04-30T05:01:32.822Z,7.50
2019-04-30T05:02:33.001Z,7.53
2019-04-30T05:03:32.754Z,7.57
2019-04-30T05:04:32.729Z,7.48
2019-04-30T05:05:32.684Z,7.60
2019-04-30T05:06:32.679Z,7.94
2019-04-30T05:07:32.671Z,8.20
2019-04-30T05:08:32.664Z,8.46
2019-04-30T05:09:32.667Z,8.79
2019-04-30T05:10:32.580Z,8.97
2019-04-30T05:11:32.580Z,9.11
2019-04-30T05:12:32.519Z,9.25
2019-04-30T05:13:34.648Z,9.51
2019-04-30T05:14:32.497Z,9.61
2019-04-30T05:15:32.445Z,9.83
2019-04-30T05:16:32.409Z,10.19
2019-04-30T05:17:32.406Z,10.13
2019-04-30T05:18:32.414Z,9.83
2019-04-30T05:19:32.364Z,10.04
2019-04-30T05:20:32.354Z,10.22
2019-04-30T05:21:42.053Z,10.15
2019-04-30T05:22:32.280Z,10.26
2019-04-30T05:23:32.276Z,10.49
2019-04-30T05:24:32.229Z,10.35
2019-04-30T05:25:32.206Z,10.26
2019-04-30T05:26:32.178Z,10.23
2019-04-30T05:27:32.199Z,10.28
2019-04-30T05:28:32.155Z,10.13
2019-04-30T05:29:32.154Z,9.99
2019-04-30T05:30:32.097Z,9.89
2019-04-30T05:31:32.075Z,9.83
2019-04-30T05:32:32.075Z,9.54
2019-04-30T05:33:32.016Z,9.41
2019-04-30T05:34:32.005Z,9.44
2019-04-30T05:35:31.983Z,9.25
2019-04-30T05:36:31.960Z,9.13
2019-04-30T05:37:31.940Z,9.10
2019-04-30T05:38:31.943Z,9.10
2019-04-30T05:39:31.898Z,9.08
2019-04-30T05:40:31.880Z,9.04
2019-04-30T05:41:31.867Z,8.97
2019-04-30T05:42:31.839Z,9.11
2019-04-30T05:43:31.807Z,9.16
2019-04-30T05:44:31.813Z,9.10
2019-04-30T05:45:33.703Z,9.10
2019-04-30T05:46:31.797Z,9.31
2019-04-30T05:47:31.731Z,9.55
2019-04-30T05:48:31.723Z,9.94
2019-04-30T05:49:31.713Z,10.23
2019-04-30T05:50:31.670Z,10.67
2019-04-30T05:51:31.646Z,10.86
2019-04-30T05:52:31.645Z,11.36
2019-04-30T05:53:31.612Z,11.78
2019-04-30T05:54:31.597Z,12.25
2019-04-30T05:55:31.569Z,12.70
2019-04-30T05:56:31.552Z,12.73
2019-04-30T05:57:31.542Z,13.15
2019-04-30T05:58:31.575Z,13.11
2019-04-30T05:59:31.491Z,13.25
2019-04-30T06:00:31.520Z,13.67
2019-04-30T06:01:31.451Z,13.71
2019-04-30T06:02:34.081Z,14.07
2019-04-30T06:03:33.345Z,14.40
2019-04-30T06:04:31.388Z,14.77
2019-04-30T06:05:31.391Z,14.85
2019-04-30T06:06:33.564Z,14.73
2019-04-30T06:07:31.351Z,15.04
2019-04-30T06:08:31.337Z,15.39
2019-04-30T06:09:33.957Z,15.33
2019-04-30T06:10:31.300Z,15.11
2019-04-30T06:11:31.260Z,15.04
2019-04-30T06:12:31.260Z,15.42
2019-04-30T06:13:32.040Z,15.24
2019-04-30T06:14:31.221Z,15.15
2019-04-30T06:15:31.218Z,15.35
2019-04-30T06:16:31.188Z,15.07
2019-04-30T06:17:31.163Z,14.66
2019-04-30T06:18:31.161Z,14.89
2019-04-30T06:19:31.120Z,15.24
2019-04-30T06:20:31.108Z,15.70
2019-04-30T06:21:31.084Z,16.20
2019-04-30T06:22:31.131Z,16.64
2019-04-30T06:23:31.049Z,16.66
2019-04-30T06:24:31.048Z,16.02
2019-04-30T06:25:41.302Z,15.70
2019-04-30T06:26:31.020Z,15.79
2019-04-30T06:27:30.994Z,15.79
2019-04-30T06:28:30.972Z,15.80
2019-04-30T06:29:30.976Z,16.13
2019-04-30T06:30:30.968Z,16.05
2019-04-30T06:31:34.263Z,15.91
2019-04-30T06:32:30.930Z,16.36
2019-04-30T06:33:30.904Z,16.50
2019-04-30T06:34:30.928Z,16.26
2019-04-30T06:35:30.889Z,15.24
2019-04-30T06:36:30.860Z,14.48
2019-04-30T06:37:31.599Z,14.29
2019-04-30T06:38:30.815Z,14.44
2019-04-30T06:39:30.835Z,14.58
2019-04-30T06:40:30.813Z,14.36
2019-04-30T06:41:30.846Z,14.79
2019-04-30T06:42:30.787Z,15.02
2019-04-30T06:43:30.754Z,14.15
2019-04-30T06:44:37.356Z,14.07
2019-04-30T06:45:30.758Z,14.23
2019-04-30T06:46:30.719Z,14.45
2019-04-30T06:47:33.161Z,14.66
2019-04-30T06:48:30.690Z,15.00
2019-04-30T06:49:30.687Z,15.15
2019-04-30T06:50:30.667Z,15.46
2019-04-30T06:51:30.877Z,15.51
2019-04-30T06:52:30.633Z,15.31
2019-04-30T06:53:30.590Z,15.06
2019-04-30T06:54:30.618Z,15.09
2019-04-30T06:55:30.998Z,14.65
2019-04-30T06:56:30.573Z,15.03
2019-04-30T06:57:30.600Z,14.63
2019-04-30T06:58:30.593Z,14.65
2019-04-30T06:59:30.533Z,15.07
2019-04-30T07:00:33.619Z,15.31
2019-04-30T07:01:30.490Z,15.64
2019-04-30T07:02:30.895Z,16.00
2019-04-30T07:03:30.463Z,16.00
2019-04-30T07:04:30.508Z,15.91
2019-04-30T07:05:30.449Z,16.08
2019-04-30T07:06:32.653Z,15.43
2019-04-30T07:07:38.466Z,15.42
2019-04-30T07:08:38.858Z,14.96
2019-04-30T07:09:33.555Z,14.81
2019-04-30T07:10:30.399Z,14.97
2019-04-30T07:11:30.360Z,14.97
2019-04-30T07:12:30.925Z,14.86
2019-04-30T07:13:30.329Z,14.30
2019-04-30T07:14:30.327Z,14.29
2019-04-30T07:15:30.306Z,14.50
2019-04-30T07:16:30.302Z,14.73
2019-04-30T07:17:30.277Z,14.81
2019-04-30T07:18:30.285Z,14.91
2019-04-30T07:19:38.261Z,14.81
2019-04-30T07:20:33.937Z,14.43
2019-04-30T07:21:31.714Z,14.37
2019-04-30T07:22:40.086Z,14.18
2019-04-30T07:23:30.204Z,14.11
2019-04-30T07:24:30.179Z,14.35
2019-04-30T07:25:30.206Z,14.47
2019-04-30T07:26:30.183Z,14.66
2019-04-30T07:27:32.360Z,14.89
2019-04-30T07:28:43.256Z,14.65
2019-04-30T07:29:30.124Z,15.10
2019-04-30T07:30:30.905Z,14.99
2019-04-30T07:31:30.129Z,15.06
2019-04-30T07:32:30.087Z,15.18
2019-04-30T07:33:30.068Z,15.43
2019-04-30T07:34:36.557Z,15.70
2019-04-30T07:35:30.054Z,16.01
2019-04-30T07:36:46.880Z,16.20
2019-04-30T07:38:35.618Z,16.54
2019-04-30T07:39:33.351Z,16.76
2019-04-30T07:41:16.296Z,16.26
2019-04-30T07:42:23.445Z,16.38
2019-04-30T07:44:30.007Z,15.75
2019-04-30T07:45:16.315Z,15.44
2019-04-30T07:47:09.735Z,15.39
2019-04-30T07:48:09.458Z,15.65
2019-04-30T07:49:55.960Z,16.49
2019-04-30T07:50:54.904Z,16.28
2019-04-30T07:53:01.797Z,15.77
2019-04-30T07:53:49.638Z,16.24
2019-04-30T07:55:40.687Z,16.00
2019-04-30T07:56:41.714Z,16.13
2019-04-30T07:57:40.710Z,16.36
2019-04-30T07:58:40.626Z,16.61
2019-04-30T07:59:40.614Z,16.74
2019-04-30T08:00:40.599Z,16.24
2019-04-30T08:02:00.614Z,16.00
2019-04-30T08:02:43.561Z,15.67
2019-04-30T08:03:40.938Z,16.16
2019-04-30T08:04:40.876Z,16.51
2019-04-30T08:05:40.551Z,16.28
2019-04-30T08:06:40.726Z,16.47
2019-04-30T08:07:40.558Z,16.38
2019-04-30T08:08:41.125Z,16.24
2019-04-30T08:09:42.335Z,16.02
2019-04-30T08:10:40.488Z,15.72
2019-04-30T08:11:43.423Z,15.79
2019-04-30T08:12:43.103Z,16.20
2019-04-30T08:13:41.425Z,16.49
2019-04-30T08:14:40.441Z,16.20
2019-04-30T08:15:42.292Z,15.77
2019-04-30T08:16:40.418Z,15.58
2019-04-30T08:17:40.410Z,15.68
2019-04-30T08:18:40.396Z,15.79
2019-04-30T08:19:41.099Z,16.12
2019-04-30T08:20:40.375Z,15.91
2019-04-30T08:21:40.362Z,16.21
2019-04-30T08:22:41.156Z,16.54
2019-04-30T08:23:40.341Z,16.51
2019-04-30T08:24:40.331Z,16.29
2019-04-30T08:25:40.319Z,16.51
2019-04-30T08:26:40.310Z,16.26
2019-04-30T08:27:40.297Z,16.33
2019-04-30T08:28:40.288Z,16.33
2019-04-30T08:29:40.276Z,16.23
2019-04-30T08:30:40.265Z,16.68
2019-04-30T08:31:40.933Z,16.51
2019-04-30T08:32:40.238Z,16.57
2019-04-30T08:33:40.340Z,15.94
2019-04-30T08:34:40.220Z,16.35
2019-04-30T08:35:40.214Z,16.65
2019-04-30T08:36:40.197Z,17.22
2019-04-30T08:37:40.203Z,17.09
2019-04-30T08:38:40.176Z,17.30
2019-04-30T08:39:40.175Z,16.71
2019-04-30T08:40:53.115Z,16.58
2019-04-30T08:41:40.143Z,16.66
2019-04-30T08:42:40.437Z,16.94
2019-04-30T08:43:40.122Z,16.78
2019-04-30T08:44:40.113Z,16.94
2019-04-30T08:45:40.108Z,16.99
2019-04-30T08:46:40.093Z,17.14
2019-04-30T08:47:40.080Z,17.34
2019-04-30T08:48:50.271Z,17.41
2019-04-30T08:49:40.759Z,17.36
2019-04-30T08:50:40.169Z,17.33
2019-04-30T08:51:40.552Z,17.30
2019-04-30T08:52:40.034Z,17.45
2019-04-30T08:53:41.095Z,18.00
2019-04-30T08:54:40.005Z,18.41
2019-04-30T08:55:39.996Z,18.33
2019-04-30T08:56:39.986Z,17.60
2019-04-30T08:57:39.978Z,17.11
2019-04-30T08:58:39.963Z,17.26
2019-04-30T08:59:39.958Z,17.36
2019-04-30T09:00:39.941Z,17.52
2019-04-30T09:01:39.935Z,17.54
2019-04-30T09:02:39.922Z,17.90
2019-04-30T09:03:39.910Z,17.51
2019-04-30T09:04:39.901Z,17.31
2019-04-30T09:05:39.892Z,17.15
2019-04-30T09:06:40.135Z,17.85
2019-04-30T09:07:39.876Z,18.18
2019-04-30T09:08:40.181Z,18.60
2019-04-30T09:09:39.851Z,18.28
2019-04-30T09:10:39.839Z,18.47
2019-04-30T09:11:51.723Z,18.65
2019-04-30T09:12:39.981Z,18.45
2019-04-30T09:13:39.818Z,18.60
2019-04-30T09:14:40.671Z,18.84
2019-04-30T09:15:40.147Z,18.83
2019-04-30T09:16:39.794Z,18.86
2019-04-30T09:17:39.769Z,18.95
2019-04-30T09:18:39.770Z,19.30
2019-04-30T09:19:39.752Z,19.67
2019-04-30T09:20:40.951Z,19.70
2019-04-30T09:21:40.212Z,19.30
2019-04-30T09:22:39.721Z,18.98
2019-04-30T09:23:47.534Z,18.20
2019-04-30T09:24:39.702Z,18.05
2019-04-30T09:25:39.721Z,18.33
2019-04-30T09:26:39.682Z,18.45
2019-04-30T09:27:39.817Z,18.26
2019-04-30T09:28:41.073Z,18.34
2019-04-30T09:29:39.653Z,18.43
2019-04-30T09:30:39.664Z,18.83
2019-04-30T09:31:41.045Z,19.41
2019-04-30T09:32:39.628Z,19.69
2019-04-30T09:33:39.618Z,19.09
2019-04-30T09:34:40.379Z,18.74
2019-04-30T09:35:39.616Z,18.98
2019-04-30T09:36:39.586Z,19.55
2019-04-30T09:37:41.711Z,20.00
2019-04-30T09:38:39.567Z,19.92
2019-04-30T09:39:39.562Z,19.99
2019-04-30T09:40:41.638Z,19.33
2019-04-30T09:41:41.149Z,19.29
2019-04-30T09:42:39.529Z,18.75
2019-04-30T09:43:40.497Z,18.41
2019-04-30T09:44:39.511Z,18.25
2019-04-30T09:45:39.501Z,17.82
2019-04-30T09:46:39.490Z,17.90
2019-04-30T09:47:41.924Z,17.67
2019-04-30T09:48:39.475Z,17.80
2019-04-30T09:49:41.481Z,17.57
2019-04-30T09:50:39.601Z,17.56
2019-04-30T09:51:40.061Z,18.35
2019-04-30T09:52:39.954Z,19.24
2019-04-30T09:53:39.918Z,19.41
2019-04-30T09:54:40.071Z,19.41
2019-04-30T09:55:40.575Z,19.37
2019-04-30T09:56:39.412Z,19.39
2019-04-30T09:57:39.390Z,19.07
2019-04-30T09:58:39.428Z,18.60
2019-04-30T09:59:39.375Z,18.40
2019-04-30T10:00:39.371Z,18.35
2019-04-30T10:01:39.350Z,18.00
2019-04-30T10:02:39.343Z,17.79
2019-04-30T10:03:40.104Z,17.67
2019-04-30T10:04:39.967Z,17.31
2019-04-30T10:05:39.311Z,17.49
2019-04-30T10:06:40.364Z,18.05
2019-04-30T10:07:39.466Z,18.05
2019-04-30T10:08:47.846Z,17.95
2019-04-30T10:09:39.280Z,18.03
2019-04-30T10:10:39.267Z,18.03
2019-04-30T10:11:39.261Z,18.16
2019-04-30T10:12:39.293Z,18.44
2019-04-30T10:13:39.247Z,18.44
2019-04-30T10:14:40.955Z,18.65
2019-04-30T10:15:39.222Z,18.58
2019-04-30T10:16:39.637Z,18.34
2019-04-30T10:17:39.205Z,18.20
2019-04-30T10:18:39.194Z,18.08
2019-04-30T10:19:39.380Z,18.19
2019-04-30T10:20:39.175Z,18.59
2019-04-30T10:21:39.166Z,19.18
2019-04-30T10:22:40.086Z,19.54
2019-04-30T10:23:39.241Z,19.67
2019-04-30T10:24:39.365Z,19.09
2019-04-30T10:25:39.126Z,18.92
2019-04-30T10:26:39.119Z,19.09
2019-04-30T10:27:39.130Z,19.34
2019-04-30T10:28:39.098Z,19.14
2019-04-30T10:29:41.122Z,18.78
2019-04-30T10:30:39.083Z,18.45
2019-04-30T10:31:39.123Z,18.28
2019-04-30T10:32:39.063Z,18.55
2019-04-30T10:33:39.059Z,18.83
2019-04-30T10:34:39.050Z,19.07
2019-04-30T10:35:39.041Z,19.52
2019-04-30T10:36:41.508Z,19.56
2019-04-30T10:37:39.020Z,19.66
2019-04-30T10:38:39.425Z,19.37
2019-04-30T10:39:39.169Z,19.37
2019-04-30T10:40:39.227Z,19.39
2019-04-30T10:41:39.510Z,19.07
2019-04-30T10:42:39.304Z,18.98
2019-04-30T10:43:39.325Z,18.63
2019-04-30T10:44:38.962Z,18.77
2019-04-30T10:45:39.084Z,18.89
2019-04-30T10:46:38.936Z,19.08
2019-04-30T10:47:39.416Z,19.31
2019-04-30T10:48:38.916Z,19.40
2019-04-30T10:49:39.078Z,19.67
2019-04-30T10:50:40.800Z,19.30
2019-04-30T10:51:38.960Z,19.79
2019-04-30T10:52:39.304Z,20.18
2019-04-30T10:53:38.873Z,20.66
2019-04-30T10:54:39.013Z,20.75
2019-04-30T10:55:38.915Z,20.70
2019-04-30T10:56:38.843Z,21.09
2019-04-30T10:57:39.697Z,21.48
2019-04-30T10:58:38.827Z,21.83
2019-04-30T10:59:38.812Z,21.93
2019-04-30T11:00:39.064Z,21.82
2019-04-30T11:01:39.222Z,21.30
2019-04-30T11:02:46.968Z,21.18
2019-04-30T11:04:39.924Z,20.58
2019-04-30T11:05:41.291Z,20.07
2019-04-30T11:07:28.830Z,19.58
2019-04-30T11:08:39.262Z,19.92
2019-04-30T11:10:20.537Z,20.88
2019-04-30T11:11:20.530Z,21.33
2019-04-30T11:13:15.179Z,21.64
2019-04-30T11:14:15.117Z,21.96
2019-04-30T11:16:13.233Z,21.57
2019-04-30T11:17:10.039Z,21.70
2019-04-30T11:19:02.706Z,21.50
2019-04-30T11:20:02.601Z,21.45
2019-04-30T11:21:55.605Z,22.33
2019-04-30T11:22:55.548Z,22.70
2019-04-30T11:23:55.547Z,22.04
2019-04-30T11:25:01.628Z,22.22
2019-04-30T11:25:56.066Z,22.36
2019-04-30T11:26:55.732Z,22.43
2019-04-30T11:27:55.735Z,22.94
2019-04-30T11:28:55.486Z,23.06
2019-04-30T11:30:01.436Z,22.65
2019-04-30T11:30:55.497Z,21.88
2019-04-30T11:31:55.518Z,21.58
2019-04-30T11:32:55.507Z,21.79
2019-04-30T11:33:55.303Z,22.14
2019-04-30T11:34:55.292Z,22.30
2019-04-30T11:36:02.454Z,22.44
2019-04-30T11:36:55.268Z,21.69
2019-04-30T11:37:55.261Z,21.54
2019-04-30T11:38:55.255Z,22.00
2019-04-30T11:39:55.249Z,21.80
2019-04-30T11:40:55.244Z,21.83
2019-04-30T11:41:55.225Z,21.85
2019-04-30T11:42:55.220Z,21.92
2019-04-30T11:43:55.211Z,21.99
2019-04-30T11:44:55.207Z,22.48
2019-04-30T11:45:55.197Z,22.44
2019-04-30T11:46:55.182Z,22.04
2019-04-30T11:47:55.179Z,22.29
2019-04-30T11:48:55.177Z,22.13
2019-04-30T11:49:55.158Z,22.41
2019-04-30T11:50:55.160Z,22.14
2019-04-30T11:51:55.149Z,22.25
2019-04-30T11:53:09.661Z,21.48
2019-04-30T11:53:55.133Z,21.75
2019-04-30T11:54:55.123Z,22.02
2019-04-30T11:55:55.112Z,21.93
2019-04-30T11:56:55.107Z,22.14
2019-04-30T11:57:55.094Z,21.95
2019-04-30T11:58:55.090Z,20.87
2019-04-30T11:59:55.085Z,20.62
2019-04-30T12:00:55.070Z,20.58
2019-04-30T12:01:55.064Z,21.17
2019-04-30T12:02:55.055Z,21.96
2019-04-30T12:03:55.072Z,22.14
2019-04-30T12:04:55.038Z,21.46
2019-04-30T12:05:55.034Z,20.92
2019-04-30T12:06:55.026Z,20.82
2019-04-30T12:07:55.018Z,21.24
2019-04-30T12:08:55.029Z,21.58
2019-04-30T12:09:55.001Z,20.67
2019-04-30T12:10:54.990Z,20.58
2019-04-30T12:11:54.985Z,20.29
2019-04-30T12:12:54.974Z,20.24
2019-04-30T12:13:54.965Z,20.21
2019-04-30T12:14:54.961Z,20.40
2019-04-30T12:15:54.941Z,20.34
2019-04-30T12:16:54.940Z,20.28
2019-04-30T12:17:54.933Z,19.92
2019-04-30T12:18:54.926Z,20.52
2019-04-30T12:19:54.926Z,21.05
2019-04-30T12:20:54.904Z,21.70
2019-04-30T12:21:54.894Z,21.14
2019-04-30T12:22:54.883Z,20.69
2019-04-30T12:23:54.889Z,20.59
2019-04-30T12:25:02.504Z,20.77
2019-04-30T12:25:54.860Z,20.92
2019-04-30T12:26:54.850Z,20.70
2019-04-30T12:27:54.845Z,20.84
2019-04-30T12:28:54.837Z,21.18
2019-04-30T12:29:54.823Z,21.72
2019-04-30T12:30:54.810Z,21.69
2019-04-30T12:31:54.803Z,21.45
2019-04-30T12:32:54.796Z,21.57
2019-04-30T12:33:54.781Z,21.82
2019-04-30T12:34:54.771Z,21.92
2019-04-30T12:35:54.768Z,22.38
2019-04-30T12:36:54.756Z,22.59
2019-04-30T12:37:54.751Z,22.98
2019-04-30T12:38:54.743Z,22.93
2019-04-30T12:39:54.766Z,23.02
2019-04-30T12:40:54.727Z,21.96
2019-04-30T12:41:54.715Z,21.83
2019-04-30T12:42:54.707Z,21.66
2019-04-30T12:43:54.698Z,21.64
2019-04-30T12:44:54.723Z,21.69
2019-04-30T12:46:02.545Z,22.22
2019-04-30T12:46:54.671Z,22.76
2019-04-30T12:47:54.666Z,22.72
2019-04-30T12:48:54.660Z,22.94
2019-04-30T12:49:54.649Z,22.45
2019-04-30T12:50:54.631Z,22.36
2019-04-30T12:51:54.661Z,22.36
2019-04-30T12:52:54.618Z,22.11
2019-04-30T12:53:54.628Z,22.22
2019-04-30T12:54:54.601Z,22.30
2019-04-30T12:55:55.454Z,22.69
2019-04-30T12:56:54.589Z,22.72
2019-04-30T12:57:58.634Z,22.39
2019-04-30T12:58:54.570Z,22.57
2019-04-30T12:59:54.558Z,22.68
2019-04-30T13:00:54.551Z,22.93
2019-04-30T13:01:54.548Z,23.39
2019-04-30T13:02:54.524Z,23.24
2019-04-30T13:03:58.391Z,23.10
2019-04-30T13:04:54.520Z,23.15
2019-04-30T13:05:54.988Z,22.65
2019-04-30T13:06:54.892Z,22.39
2019-04-30T13:07:54.901Z,22.47
2019-04-30T13:08:55.044Z,22.81
2019-04-30T13:09:55.045Z,22.87
2019-04-30T13:10:54.937Z,23.20
2019-04-30T13:11:54.957Z,22.87
2019-04-30T13:12:54.866Z,22.75
2019-04-30T13:13:54.971Z,22.59
2019-04-30T13:14:54.879Z,22.66
2019-04-30T13:15:54.405Z,22.51
2019-04-30T13:16:54.400Z,22.59
2019-04-30T13:17:54.388Z,22.51
2019-04-30T13:18:54.378Z,22.90
2019-04-30T13:19:54.374Z,21.83
2019-04-30T13:20:54.400Z,21.40
2019-04-30T13:21:54.355Z,20.93
2019-04-30T13:22:54.373Z,21.60
2019-04-30T13:23:54.338Z,22.36
2019-04-30T13:24:54.381Z,22.96
2019-04-30T13:25:54.319Z,23.00
2019-04-30T13:26:54.312Z,22.80
2019-04-30T13:27:54.308Z,22.93
2019-04-30T13:28:54.288Z,23.02
2019-04-30T13:29:54.277Z,23.66
2019-04-30T13:30:54.273Z,23.59
2019-04-30T13:31:54.262Z,23.66
2019-04-30T13:32:54.256Z,23.78
2019-04-30T13:33:55.094Z,23.31